Portada
METAR-TAF:

METAR-TAF

Aeroports :

Cebú, Filipines

latitud: 10-18-48N, longitud: 123-58-58E, altitud: 23 m

Observació

L'informe es va fer fa 31 minuts, a les 14:00 UTC
Vent 8 kt del Est/Nord-Est
Temperatura 31°C
Humitat 71%
Pressió 1010 hPa
Visibilitat 10 km o més
Escasses núvols a una alçada de 1800 ft, Cumulonimbus.
Núvols disperses a una alçada de 30000 ft

METAR: RPVM 221400Z 07008KT 9999 FEW018CB SCT300 31/25 Q1010 NOSIG RMK A2983 CB N

Hora: 22:31 (14:31 UTC)

Pronòstic

L'informe es va fer fa 3 hores i 31 minuts, a les 11:00 UTC
Pronòstic vàlid del 22 a les 12 UTC al 23 a les 18 UTC
Vent 5 kt del Est/Nord-Est
Visibilitat 10 km o més
Escasses núvols a una alçada de 2000 ft
Núvols disperses a una alçada de 30000 ft
Temporalment
l' 22 a les 12 UTC al 22 a les 18 UTC
Vent 2 kt amb direcció variable

TAF: RPVM 221100Z 2212/2318 06005KT 9999 FEW020 SCT300 TEMPO 2212/2218 VRB02KT

Observacions i pronòstics meteorològics de més de 4000 aeroports (METAR i TAF).

Les estacions disponibles són els punts grocs i vermells al mapa.

Posi el ratolí al punt desitjat per veure el nom de l'estació.

Feu clic per veure les observacions i els pronòstics meteorològics.

Per canviar el mapa: feu clic els botons verds amb una creu de color negre per apropar; al botó verd amb un guió per allunyar la imatge; o en les fletxes verdes per a mapes adjacents.


METAR-TAF: